Time;durP1;ratioP1;P1;durP2;ratioP2;P2;SDS_P1;SDS_P2;PMS_P1;PMS_P2;Temp;Humidity;BMP_temperature;BMP_pressure;BME280_temperature;BME280_humidity;BME280_pressure;Samples;Min_cycle;Max_cycle;Signal;HPM_P1;HPM_P2
2021/12/20 00:01:12;;;;;;;22.40;17.80;;;;;;;-0.32;88.66;97631.56;106428;1321;23143;-65
2021/12/20 00:03:40;;;;;;;20.90;18.60;;;;;;;-0.34;88.67;97633.61;106409;1321;23423;-65
2021/12/20 00:06:08;;;;;;;19.60;16.00;;;;;;;-0.34;88.89;97637.34;106397;1321;22409;-65
2021/12/20 00:08:36;;;;;;;19.40;14.80;;;;;;;-0.34;88.74;97634.70;106443;1321;22622;-64
2021/12/20 00:11:04;;;;;;;15.50;13.60;;;;;;;-0.31;88.92;97635.81;106394;1321;22462;-65
2021/12/20 00:13:32;;;;;;;21.40;17.20;;;;;;;-0.12;91.02;97627.60;106422;1322;22293;-64
2021/12/20 00:16:01;;;;;;;19.20;16.00;;;;;;;0.14;89.71;97630.14;106420;1321;22453;-62
2021/12/20 00:18:28;;;;;;;19.70;14.70;;;;;;;0.10;88.63;97629.54;106416;1321;22282;-61
2021/12/20 00:20:57;;;;;;;21.20;16.40;;;;;;;-0.00;88.46;97636.19;106396;1321;23200;-61
2021/12/20 00:23:25;;;;;;;19.90;16.40;;;;;;;-0.05;88.63;97640.94;106331;1319;138091;-61
2021/12/20 00:25:53;;;;;;;21.00;16.10;;;;;;;-0.08;88.58;97640.55;106277;1322;22544;-62
2021/12/20 00:28:22;;;;;;;21.30;16.90;;;;;;;-0.12;88.58;97646.15;106439;1321;22475;-61
2021/12/20 00:30:51;;;;;;;18.50;15.80;;;;;;;-0.17;88.69;97644.21;106285;1322;22279;-62
2021/12/20 00:33:20;;;;;;;19.40;15.40;;;;;;;-0.20;88.58;97641.27;106406;1321;23078;-62
2021/12/20 00:35:51;;;;;;;19.90;15.80;;;;;;;-0.23;88.82;97645.77;106438;1321;22471;-62
2021/12/20 00:41:16;;;;;;;20.40;16.30;;;;;;;-0.29;88.87;97644.33;106443;1322;22293;-61
2021/12/20 00:43:59;;;;;;;20.30;15.30;;;;;;;-0.30;88.87;97633.92;106450;1322;22289;-62
2021/12/20 00:47:02;;;;;;;21.20;15.80;;;;;;;-0.31;88.83;97636.79;106392;1321;22471;-61
2021/12/20 00:49:35;;;;;;;19.40;14.70;;;;;;;-0.31;88.89;97633.13;106395;1320;23320;-62
2021/12/20 00:52:09;;;;;;;21.00;16.80;;;;;;;-0.31;88.84;97643.66;106192;1322;138814;-61
2021/12/20 00:54:41;;;;;;;22.30;18.80;;;;;;;-0.31;88.95;97643.34;106425;1321;22934;-62
2021/12/20 00:57:21;;;;;;;21.40;16.70;;;;;;;-0.32;88.94;97644.80;106405;1321;22623;-62
2021/12/20 00:59:51;;;;;;;21.30;17.00;;;;;;;-0.35;88.95;97641.15;106402;1321;22363;-61
2021/12/20 01:02:25;;;;;;;20.60;16.30;;;;;;;-0.35;88.91;97636.18;106402;1322;22490;-63
2021/12/20 01:04:59;;;;;;;22.20;17.40;;;;;;;-0.36;88.82;97635.72;106414;1319;22514;-63
2021/12/20 01:07:28;;;;;;;24.50;19.10;;;;;;;-0.39;88.94;97635.17;106422;1320;22088;-64
2021/12/20 01:09:59;;;;;;;20.60;16.80;;;;;;;-0.44;89.01;97633.07;106375;1321;22605;-63
2021/12/20 01:12:42;;;;;;;27.20;18.10;;;;;;;-0.44;89.04;97637.09;106274;1322;23126;-63
2021/12/20 01:15:13;;;;;;;23.10;19.30;;;;;;;-0.44;88.93;97635.35;106418;1321;22562;-62
2021/12/20 01:17:41;;;;;;;23.10;20.20;;;;;;;-0.42;89.05;97638.98;106403;1321;22645;-63
2021/12/20 01:20:15;;;;;;;28.00;20.20;;;;;;;-0.41;89.05;97633.17;106416;1322;22557;-63
2021/12/20 01:22:45;;;;;;;23.00;18.50;;;;;;;-0.45;88.97;97637.92;106446;1321;22301;-62
2021/12/20 01:25:14;;;;;;;22.50;16.90;;;;;;;-0.47;89.03;97639.64;106412;1321;22435;-63
2021/12/20 01:27:43;;;;;;;20.90;16.80;;;;;;;-0.45;89.00;97643.70;106399;1322;22392;-63
2021/12/20 01:30:25;;;;;;;18.60;16.60;;;;;;;-0.44;89.02;97642.34;106418;1322;22523;-63
2021/12/20 01:32:58;;;;;;;19.10;15.50;;;;;;;-0.47;89.06;97641.51;106421;1321;22485;-63
2021/12/20 01:35:27;;;;;;;19.40;15.90;;;;;;;-0.46;89.01;97643.31;106422;1322;22364;-63
2021/12/20 01:37:56;;;;;;;18.50;15.90;;;;;;;-0.47;89.16;97643.46;106454;1322;23214;-63
2021/12/20 01:40:29;;;;;;;18.40;15.80;;;;;;;-0.42;89.03;97645.77;106416;1322;22588;-63
2021/12/20 01:43:05;;;;;;;17.10;14.00;;;;;;;-0.41;89.06;97634.83;106376;1322;22583;-63
2021/12/20 01:45:33;;;;;;;17.10;14.80;;;;;;;-0.41;89.23;97641.06;106412;1322;23233;-63
2021/12/20 01:48:05;;;;;;;18.40;15.00;;;;;;;-0.41;89.14;97644.19;106425;1322;22324;-63
2021/12/20 01:53:21;;;;;;;18.30;15.70;;;;;;;-0.39;89.25;97640.01;106400;1321;23084;-64
2021/12/20 01:55:51;;;;;;;17.90;15.50;;;;;;;-0.42;89.43;97635.71;106410;1321;23162;-64
2021/12/20 01:58:22;;;;;;;18.00;13.10;;;;;;;-0.42;89.41;97632.05;106383;1321;22276;-61
2021/12/20 02:03:40;;;;;;;16.00;14.30;;;;;;;-0.38;89.23;97629.32;106375;1320;22368;-64
2021/12/20 02:06:19;;;;;;;16.30;13.60;;;;;;;-0.39;89.19;97638.05;106299;1322;22390;-64
2021/12/20 02:08:48;;;;;;;14.10;11.80;;;;;;;-0.35;89.23;97640.52;106405;1321;22302;-63
2021/12/20 02:11:18;;;;;;;14.90;13.10;;;;;;;-0.31;89.11;97642.29;106423;1322;22676;-64
2021/12/20 02:13:46;;;;;;;14.00;12.40;;;;;;;-0.28;89.05;97641.39;106430;1322;22441;-64
2021/12/20 02:16:15;;;;;;;16.60;13.30;;;;;;;-0.28;89.08;97643.04;106401;1321;22496;-64
2021/12/20 02:18:43;;;;;;;14.90;11.80;;;;;;;-0.29;89.00;97647.95;106292;1322;22293;-64
2021/12/20 02:21:11;;;;;;;14.10;11.90;;;;;;;-0.29;88.91;97650.33;106279;1322;22399;-64
2021/12/20 02:23:39;;;;;;;13.90;11.00;;;;;;;-0.28;88.82;97650.87;106389;1316;22930;-64
2021/12/20 02:26:11;;;;;;;15.30;10.90;;;;;;;-0.27;88.83;97650.67;106248;1322;22375;-64
2021/12/20 02:28:43;;;;;;;15.00;12.00;;;;;;;-0.27;88.77;97651.78;106388;1322;22520;-64
2021/12/20 02:39:22;;;;;;;12.60;10.40;;;;;;;-0.42;88.52;97650.27;106289;1322;22504;-64
2021/12/20 02:41:51;;;;;;;13.20;11.30;;;;;;;-0.46;88.45;97654.48;106392;1322;22284;-64
2021/12/20 02:44:22;;;;;;;13.60;10.60;;;;;;;-0.48;88.38;97652.76;106388;1322;23162;-64
2021/12/20 02:47:05;;;;;;;13.10;10.10;;;;;;;-0.45;88.58;97650.26;106388;1321;22519;-64
2021/12/20 02:49:33;;;;;;;13.60;11.00;;;;;;;-0.43;88.29;97658.88;106307;1322;22564;-64
2021/12/20 02:52:08;;;;;;;13.00;11.60;;;;;;;-0.43;88.31;97656.02;106284;1322;23300;-64
2021/12/20 02:54:36;;;;;;;14.90;11.60;;;;;;;-0.46;88.62;97652.04;106271;1323;23339;-62
2021/12/20 02:57:05;;;;;;;14.00;12.00;;;;;;;-0.48;88.38;97651.42;106369;1322;22459;-63
2021/12/20 02:59:33;;;;;;;12.60;10.70;;;;;;;-0.50;88.34;97656.67;106407;1321;22618;-64
2021/12/20 03:02:08;;;;;;;13.80;10.50;;;;;;;-0.51;88.53;97655.64;106378;1321;22301;-64
2021/12/20 03:04:37;;;;;;;13.30;11.40;;;;;;;-0.50;88.53;97653.83;106395;1322;22510;-63
2021/12/20 03:07:10;;;;;;;14.70;11.70;;;;;;;-0.49;88.53;97649.23;106380;1321;22580;-62
2021/12/20 03:09:43;;;;;;;15.70;11.60;;;;;;;-0.50;88.62;97648.41;106281;1322;22290;-63
2021/12/20 03:12:15;;;;;;;13.80;12.30;;;;;;;-0.49;88.51;97657.34;106403;1322;23015;-63
2021/12/20 03:14:46;;;;;;;13.10;11.00;;;;;;;-0.47;88.46;97653.30;106393;1322;22276;-63
2021/12/20 03:17:14;;;;;;;14.20;11.40;;;;;;;-0.46;88.32;97647.39;106402;1321;22832;-62
2021/12/20 03:19:42;;;;;;;12.40;10.60;;;;;;;-0.47;88.31;97655.35;106295;1322;22543;-63
2021/12/20 03:22:10;;;;;;;13.20;11.20;;;;;;;-0.44;88.36;97653.02;106376;1321;23192;-62
2021/12/20 03:24:38;;;;;;;11.20;9.60;;;;;;;-0.43;88.38;97659.73;106389;1322;22613;-62
2021/12/20 03:27:06;;;;;;;12.60;9.80;;;;;;;-0.41;88.37;97661.94;106420;1321;22447;-63
2021/12/20 03:29:34;;;;;;;13.40;9.90;;;;;;;-0.42;88.39;97667.57;106386;1322;22300;-64
2021/12/20 03:32:03;;;;;;;11.30;8.80;;;;;;;-0.43;88.31;97652.54;106395;1321;22510;-63
2021/12/20 03:34:31;;;;;;;11.40;9.40;;;;;;;-0.45;88.26;97663.83;106310;1323;22566;-64
2021/12/20 03:36:59;;;;;;;12.50;10.10;;;;;;;-0.47;88.00;97659.49;106305;1323;22484;-64
2021/12/20 03:39:27;;;;;;;12.70;9.60;;;;;;;-0.47;88.10;97651.08;106388;1322;22314;-64
2021/12/20 03:41:55;;;;;;;11.20;10.00;;;;;;;-0.47;88.28;97660.61;106277;1323;22386;-64
2021/12/20 03:44:23;;;;;;;11.30;9.60;;;;;;;-0.48;88.04;97657.08;106291;1322;22481;-65
2021/12/20 03:46:51;;;;;;;10.40;8.80;;;;;;;-0.49;88.00;97660.77;106288;1323;22466;-64
2021/12/20 03:49:19;;;;;;;13.80;10.50;;;;;;;-0.49;87.86;97656.12;106279;1323;22379;-64
2021/12/20 03:51:48;;;;;;;13.60;9.00;;;;;;;-0.50;87.82;97658.63;106314;1322;22429;-64
2021/12/20 03:54:16;;;;;;;10.80;8.70;;;;;;;-0.51;87.82;97652.33;106293;1323;22290;-64
2021/12/20 03:56:44;;;;;;;11.90;8.40;;;;;;;-0.50;87.89;97659.15;106289;1323;22433;-64
2021/12/20 03:59:13;;;;;;;12.20;8.80;;;;;;;-0.49;87.80;97656.27;106274;1323;22281;-64
2021/12/20 04:01:41;;;;;;;11.50;8.70;;;;;;;-0.49;87.84;97649.66;106314;1322;22358;-64
2021/12/20 04:04:09;;;;;;;11.90;9.20;;;;;;;-0.49;87.67;97642.93;106258;1324;22352;-64
2021/12/20 04:06:37;;;;;;;12.30;9.40;;;;;;;-0.45;87.72;97646.98;106300;1323;22457;-64
2021/12/20 04:09:05;;;;;;;12.00;10.30;;;;;;;-0.43;87.66;97637.43;106294;1323;23205;-63
2021/12/20 04:11:34;;;;;;;16.00;10.60;;;;;;;-0.44;87.59;97641.81;106273;1322;22494;-63
2021/12/20 04:14:02;;;;;;;11.40;9.00;;;;;;;-0.46;87.54;97647.60;106272;1323;22483;-64
2021/12/20 04:16:30;;;;;;;10.70;8.60;;;;;;;-0.47;87.60;97640.86;106280;1323;22590;-63
2021/12/20 04:18:58;;;;;;;12.70;9.10;;;;;;;-0.47;87.70;97645.21;106306;1323;22504;-63
2021/12/20 04:21:27;;;;;;;12.10;9.80;;;;;;;-0.47;87.40;97648.48;106292;1322;22514;-63
2021/12/20 04:23:55;;;;;;;14.20;9.80;;;;;;;-0.50;87.26;97648.20;106293;1323;22477;-64
2021/12/20 04:26:23;;;;;;;17.10;12.00;;;;;;;-0.54;87.15;97659.88;106298;1323;22501;-62
2021/12/20 04:28:51;;;;;;;14.40;11.00;;;;;;;-0.55;87.12;97651.02;106288;1323;22397;-62
2021/12/20 04:31:19;;;;;;;14.40;10.50;;;;;;;-0.53;87.09;97646.06;106293;1323;22307;-63
2021/12/20 04:33:48;;;;;;;13.70;9.90;;;;;;;-0.54;87.19;97642.42;106385;1322;22412;-62
2021/12/20 04:36:16;;;;;;;14.40;9.80;;;;;;;-0.57;87.09;97651.23;106395;1322;23017;-62
2021/12/20 04:38:45;;;;;;;14.00;8.50;;;;;;;-0.59;87.11;97648.29;106383;1321;22490;-63
2021/12/20 04:41:13;;;;;;;14.30;10.40;;;;;;;-0.56;86.71;97651.05;106376;1321;23018;-62
2021/12/20 04:43:41;;;;;;;15.90;11.20;;;;;;;-0.56;86.79;97660.63;106373;1321;22288;-63
2021/12/20 04:46:10;;;;;;;13.90;9.90;;;;;;;-0.58;86.85;97666.99;106371;1322;22327;-63
2021/12/20 04:48:38;;;;;;;12.60;9.40;;;;;;;-0.56;87.01;97672.75;106407;1321;22500;-63
2021/12/20 04:51:06;;;;;;;11.60;8.90;;;;;;;-0.54;86.71;97670.45;106407;1321;22415;-63
2021/12/20 04:53:34;;;;;;;12.50;9.10;;;;;;;-0.53;86.66;97674.65;106387;1321;22475;-63
2021/12/20 04:56:02;;;;;;;12.80;9.50;;;;;;;-0.53;86.81;97670.95;106421;1320;22425;-63
2021/12/20 04:58:30;;;;;;;12.40;8.30;;;;;;;-0.51;86.97;97675.39;106388;1321;22482;-62
2021/12/20 05:00:59;;;;;;;11.70;9.20;;;;;;;-0.48;86.90;97674.92;106413;1322;22486;-62
2021/12/20 05:03:27;;;;;;;12.20;10.10;;;;;;;-0.49;86.93;97679.51;106426;1321;22468;-62
2021/12/20 05:05:55;;;;;;;12.20;8.60;;;;;;;-0.53;86.76;97677.21;106417;1321;22503;-62
2021/12/20 05:08:23;;;;;;;11.20;8.10;;;;;;;-0.53;86.91;97674.94;106398;1322;22599;-63
2021/12/20 05:10:51;;;;;;;13.90;11.00;;;;;;;-0.53;87.07;97682.75;106382;1322;22427;-63
2021/12/20 05:13:19;;;;;;;13.90;10.30;;;;;;;-0.54;87.25;97683.48;106410;1322;22429;-63
2021/12/20 05:15:48;;;;;;;13.30;10.30;;;;;;;-0.55;87.41;97678.23;106391;1322;22443;-63
2021/12/20 05:18:16;;;;;;;11.00;8.50;;;;;;;-0.59;87.48;97685.55;106430;1321;22291;-63
2021/12/20 05:20:44;;;;;;;11.50;8.90;;;;;;;-0.62;87.59;97684.95;106383;1322;22448;-63
2021/12/20 05:23:12;;;;;;;13.90;9.60;;;;;;;-0.62;87.69;97678.48;106415;1322;22378;-63
2021/12/20 05:25:41;;;;;;;13.40;10.80;;;;;;;-0.62;87.76;97677.17;106393;1322;22590;-63
2021/12/20 05:28:09;;;;;;;12.60;10.00;;;;;;;-0.65;88.05;97680.65;106412;1321;23205;-63
2021/12/20 05:30:37;;;;;;;12.80;10.30;;;;;;;-0.68;88.07;97679.73;106392;1322;22562;-63
2021/12/20 05:33:05;;;;;;;11.40;8.70;;;;;;;-0.70;88.26;97668.91;106381;1321;22478;-63
2021/12/20 05:35:33;;;;;;;11.50;9.30;;;;;;;-0.69;88.37;97666.80;106398;1321;22487;-63
2021/12/20 05:38:02;;;;;;;12.60;10.30;;;;;;;-0.70;88.35;97668.86;106395;1322;22367;-63
2021/12/20 05:40:30;;;;;;;12.90;10.90;;;;;;;-0.74;88.48;97677.22;106388;1322;22387;-63
2021/12/20 05:42:58;;;;;;;13.10;10.10;;;;;;;-0.79;88.73;97674.63;106387;1322;22470;-62
2021/12/20 05:45:26;;;;;;;12.40;9.60;;;;;;;-0.80;88.94;97674.55;106373;1321;23020;-65
2021/12/20 05:47:53;;;;;;;11.00;9.00;;;;;;;-0.79;88.90;97681.72;106373;1322;22482;-63
2021/12/20 05:50:23;;;;;;;11.00;9.30;;;;;;;-0.78;89.02;97679.95;106380;1322;22478;-63
2021/12/20 05:52:52;;;;;;;10.90;8.00;;;;;;;-0.79;89.17;97685.86;106402;1322;23390;-63
2021/12/20 05:55:21;;;;;;;10.90;8.40;;;;;;;-0.78;89.08;97686.83;106413;1322;22502;-63
2021/12/20 05:57:49;;;;;;;10.90;9.40;;;;;;;-0.76;89.02;97684.64;106391;1321;22361;-64
2021/12/20 06:00:20;;;;;;;12.40;10.00;;;;;;;-0.76;89.04;97691.27;106397;1322;22579;-63
2021/12/20 06:02:51;;;;;;;12.90;10.10;;;;;;;-0.76;89.29;97689.40;106390;1321;23424;-63
2021/12/20 06:05:20;;;;;;;12.20;9.60;;;;;;;-0.77;89.46;97693.45;106383;1321;22526;-63
2021/12/20 06:07:48;;;;;;;12.80;9.80;;;;;;;-0.78;89.38;97690.26;106407;1321;23125;-64
2021/12/20 06:10:18;;;;;;;11.10;8.80;;;;;;;-0.77;89.46;97690.58;106299;1321;22266;-64
2021/12/20 06:12:46;;;;;;;14.20;9.40;;;;;;;-0.76;89.40;97693.69;106400;1321;22542;-64
2021/12/20 06:15:15;;;;;;;14.80;10.60;;;;;;;-0.75;89.41;97704.30;106388;1322;22397;-64
2021/12/20 06:17:43;;;;;;;11.80;9.00;;;;;;;-0.77;89.56;97713.47;106397;1321;22405;-63
2021/12/20 06:20:13;;;;;;;11.00;8.60;;;;;;;-0.75;89.33;97698.09;106366;1322;22421;-64
2021/12/20 06:22:41;;;;;;;10.40;9.30;;;;;;;-0.70;89.26;97703.98;106380;1321;22414;-63
2021/12/20 06:25:10;;;;;;;11.80;10.60;;;;;;;-0.66;89.48;97711.00;106408;1322;22584;-63
2021/12/20 06:27:39;;;;;;;13.00;11.60;;;;;;;-0.66;89.40;97716.45;106276;1321;22491;-63
2021/12/20 06:30:09;;;;;;;12.40;10.60;;;;;;;-0.66;89.19;97727.08;106348;1321;22411;-64
2021/12/20 06:32:42;;;;;;;11.60;9.70;;;;;;;-0.65;89.36;97726.93;106419;1322;23031;-65
2021/12/20 06:35:30;;;;;;;11.70;9.10;;;;;;;-0.64;89.32;97725.91;106384;1321;22507;-63
2021/12/20 06:38:02;;;;;;;12.00;9.70;;;;;;;-0.64;89.29;97734.90;106414;1322;22584;-64
2021/12/20 06:40:33;;;;;;;13.70;11.80;;;;;;;-0.65;89.32;97732.56;106274;1322;22498;-63
2021/12/20 06:43:02;;;;;;;12.60;10.60;;;;;;;-0.65;89.32;97733.61;106409;1321;23245;-63
2021/12/20 06:45:43;;;;;;;12.00;10.70;;;;;;;-0.64;89.46;97748.79;106435;1321;22568;-63
2021/12/20 06:48:14;;;;;;;13.20;10.30;;;;;;;-0.64;89.59;97747.24;106426;1322;22573;-62
2021/12/20 06:50:48;;;;;;;11.80;10.60;;;;;;;-0.65;89.53;97748.17;106395;1321;22269;-63
2021/12/20 06:53:21;;;;;;;16.40;13.70;;;;;;;-0.64;89.66;97745.60;106427;1322;23268;-63
2021/12/20 06:55:49;;;;;;;17.40;13.70;;;;;;;-0.67;89.75;97746.96;106423;1321;22425;-63
2021/12/20 06:58:23;;;;;;;14.50;13.00;;;;;;;-0.66;89.65;97750.96;106405;1322;22500;-64
2021/12/20 07:00:59;;;;;;;15.20;13.50;;;;;;;-0.63;89.69;97751.45;106443;1322;23683;-64
2021/12/20 07:03:33;;;;;;;19.00;15.20;;;;;;;-0.60;89.46;97751.20;106406;1322;22294;-63
2021/12/20 07:06:35;;;;;;;21.40;17.40;;;;;;;-0.64;89.84;97754.92;106393;1321;22605;-63
2021/12/20 07:09:03;;;;;;;17.50;15.50;;;;;;;-0.64;89.70;97757.98;106400;1321;22299;-64
2021/12/20 07:11:36;;;;;;;16.30;13.50;;;;;;;-0.65;89.76;97759.05;106352;1322;23625;-63
2021/12/20 07:14:11;;;;;;;16.30;13.50;;;;;;;-0.64;89.84;97756.98;106405;1322;22453;-64
2021/12/20 07:16:41;;;;;;;19.70;16.40;;;;;;;-0.66;90.02;97759.07;106282;1322;23003;-64
2021/12/20 07:19:10;;;;;;;18.20;16.20;;;;;;;-0.67;89.87;97759.35;106437;1321;22473;-64
2021/12/20 07:21:43;;;;;;;18.50;14.40;;;;;;;-0.64;89.90;97764.54;106303;1321;22304;-63
2021/12/20 07:24:18;;;;;;;16.60;13.80;;;;;;;-0.62;90.03;97765.27;106320;1321;138596;-63
2021/12/20 07:27:04;;;;;;;16.00;13.80;;;;;;;-0.61;89.79;97770.14;106404;1321;22534;-63
2021/12/20 07:29:38;;;;;;;17.30;15.30;;;;;;;-0.60;90.05;97768.55;106401;1321;23255;-63
2021/12/20 07:32:11;;;;;;;15.70;14.00;;;;;;;-0.59;89.84;97767.84;106392;1322;22466;-63
2021/12/20 07:34:40;;;;;;;14.80;13.20;;;;;;;-0.60;89.84;97768.77;106395;1322;22615;-64
2021/12/20 07:37:09;;;;;;;14.10;12.70;;;;;;;-0.58;89.88;97772.63;106394;1322;22481;-63
2021/12/20 07:39:37;;;;;;;14.30;12.90;;;;;;;-0.57;89.76;97760.48;106272;1319;23409;-64
2021/12/20 07:42:09;;;;;;;15.20;13.20;;;;;;;-0.55;89.79;97763.98;106387;1321;23178;-63
2021/12/20 07:44:37;;;;;;;15.10;13.00;;;;;;;-0.57;89.92;97763.39;106430;1321;23346;-63
2021/12/20 07:47:05;;;;;;;13.30;11.70;;;;;;;-0.55;89.68;97769.89;106402;1322;22468;-63
2021/12/20 07:49:34;;;;;;;13.40;12.10;;;;;;;-0.53;89.70;97773.44;106391;1321;22500;-64
2021/12/20 07:52:04;;;;;;;14.30;12.90;;;;;;;-0.52;89.75;97774.14;106384;1321;22552;-64
2021/12/20 07:54:32;;;;;;;14.60;12.60;;;;;;;-0.51;89.58;97770.09;106170;1322;138746;-63
2021/12/20 07:57:00;;;;;;;13.40;11.60;;;;;;;-0.53;89.65;97773.91;106397;1322;23029;-63
2021/12/20 07:59:28;;;;;;;15.40;13.50;;;;;;;-0.53;89.62;97778.84;106395;1322;22473;-64
2021/12/20 08:01:56;;;;;;;16.60;14.80;;;;;;;-0.50;89.72;97785.75;106408;1322;22591;-63
2021/12/20 08:04:24;;;;;;;15.50;14.00;;;;;;;-0.47;89.59;97786.85;106423;1321;22430;-63
2021/12/20 08:06:53;;;;;;;16.30;13.30;;;;;;;-0.47;89.60;97780.77;106385;1319;23309;-63
2021/12/20 08:09:21;;;;;;;17.10;14.60;;;;;;;-0.45;89.43;97782.65;106400;1322;22564;-63
2021/12/20 08:11:49;;;;;;;16.00;13.60;;;;;;;-0.43;89.42;97783.60;106399;1322;22411;-63
2021/12/20 08:14:18;;;;;;;16.40;14.00;;;;;;;-0.38;89.50;97786.41;106412;1321;23000;-64
2021/12/20 08:16:46;;;;;;;17.20;15.50;;;;;;;-0.41;89.15;97793.66;106397;1321;22501;-64
2021/12/20 08:19:14;;;;;;;16.70;15.00;;;;;;;-0.43;89.28;97793.13;106416;1321;22457;-64
2021/12/20 08:21:42;;;;;;;13.60;12.20;;;;;;;-0.42;89.23;97795.23;106389;1321;22280;-64
2021/12/20 08:24:10;;;;;;;18.50;13.90;;;;;;;-0.39;89.22;97800.52;106405;1322;22515;-63
2021/12/20 08:26:38;;;;;;;16.40;14.70;;;;;;;-0.37;89.35;97801.95;106312;1322;138164;-63
2021/12/20 08:29:08;;;;;;;16.20;14.50;;;;;;;-0.39;89.07;97803.44;106416;1321;22338;-63
2021/12/20 08:31:36;;;;;;;14.20;12.70;;;;;;;-0.41;89.20;97806.16;106429;1321;22267;-64
2021/12/20 08:34:05;;;;;;;14.10;11.90;;;;;;;-0.40;89.06;97806.40;106302;1322;22465;-64
2021/12/20 08:36:35;;;;;;;16.40;14.60;;;;;;;-0.39;88.96;97814.11;106406;1322;23529;-63
2021/12/20 08:39:03;;;;;;;15.90;14.10;;;;;;;-0.39;89.14;97812.48;106283;1322;22299;-64
2021/12/20 08:41:31;;;;;;;16.30;14.20;;;;;;;-0.39;88.88;97810.70;106379;1321;22462;-64
2021/12/20 08:44:00;;;;;;;15.90;14.30;;;;;;;-0.38;88.84;97816.74;106390;1322;22467;-64
2021/12/20 08:46:29;;;;;;;15.70;14.10;;;;;;;-0.36;88.86;97815.90;106405;1321;23054;-64
2021/12/20 08:48:58;;;;;;;19.30;16.20;;;;;;;-0.32;88.90;97813.39;106237;1323;22538;-65
2021/12/20 08:51:26;;;;;;;16.50;14.70;;;;;;;-0.33;88.91;97816.09;106390;1321;22484;-64
2021/12/20 08:53:54;;;;;;;15.40;13.70;;;;;;;-0.32;88.90;97819.02;106401;1321;22471;-63
2021/12/20 08:56:23;;;;;;;17.30;13.40;;;;;;;-0.29;88.81;97826.17;106293;1322;138429;-62
2021/12/20 08:58:51;;;;;;;16.80;14.50;;;;;;;-0.28;88.76;97832.23;106405;1321;22618;-62
2021/12/20 09:01:21;;;;;;;15.90;13.90;;;;;;;-0.27;88.74;97827.95;106416;1322;22473;-63
2021/12/20 09:03:49;;;;;;;15.60;13.90;;;;;;;-0.28;88.74;97829.06;106275;1322;22275;-63
2021/12/20 09:06:22;;;;;;;15.00;12.30;;;;;;;-0.27;88.47;97831.36;106366;1323;22386;-63
2021/12/20 09:08:53;;;;;;;15.40;13.40;;;;;;;-0.27;88.30;97832.20;106403;1321;22660;-63
2021/12/20 09:11:22;;;;;;;14.80;12.70;;;;;;;-0.29;88.41;97833.33;106422;1322;23134;-65
2021/12/20 09:13:59;;;;;;;14.10;12.20;;;;;;;-0.27;88.67;97833.70;106351;1321;22606;-64
2021/12/20 09:16:28;;;;;;;14.10;12.60;;;;;;;-0.25;88.66;97837.91;106397;1322;22415;-64
2021/12/20 09:18:57;;;;;;;15.00;13.00;;;;;;;-0.28;88.67;97841.45;106270;1321;22490;-64
2021/12/20 09:21:25;;;;;;;14.80;13.20;;;;;;;-0.30;88.80;97845.01;106412;1322;22595;-64
2021/12/20 09:23:55;;;;;;;15.30;11.80;;;;;;;-0.31;88.81;97854.36;106386;1319;23294;-64
2021/12/20 09:26:23;;;;;;;13.80;10.80;;;;;;;-0.31;88.81;97847.95;106290;1321;139225;-65
2021/12/20 09:28:51;;;;;;;14.90;12.50;;;;;;;-0.30;88.82;97843.73;106424;1321;22687;-65
2021/12/20 09:31:19;;;;;;;15.30;13.60;;;;;;;-0.28;88.77;97843.62;106424;1322;22391;-64
2021/12/20 09:33:48;;;;;;;15.40;13.10;;;;;;;-0.30;88.59;97843.37;106426;1322;22278;-64
2021/12/20 09:36:16;;;;;;;14.70;13.10;;;;;;;-0.31;88.74;97845.88;106398;1321;22400;-63
2021/12/20 09:38:45;;;;;;;13.60;12.20;;;;;;;-0.29;88.55;97844.77;106407;1322;23037;-63
2021/12/20 09:41:28;;;;;;;15.70;14.10;;;;;;;-0.26;88.63;97844.89;106408;1322;23286;-63
2021/12/20 09:43:58;;;;;;;14.80;12.40;;;;;;;-0.25;88.38;97856.45;106395;1322;22397;-64
2021/12/20 09:46:28;;;;;;;14.70;12.30;;;;;;;-0.25;88.12;97853.02;106301;1322;22579;-64
2021/12/20 09:48:57;;;;;;;14.60;13.10;;;;;;;-0.21;88.34;97857.11;106386;1322;22601;-63
2021/12/20 09:51:26;;;;;;;15.30;13.70;;;;;;;-0.21;88.00;97858.86;106136;1321;384495;-64
2021/12/20 09:53:57;;;;;;;12.60;11.10;;;;;;;-0.22;87.87;97857.84;106388;1322;23271;-64
2021/12/20 09:56:28;;;;;;;13.30;11.90;;;;;;;-0.20;87.96;97851.48;106309;1322;138116;-62
2021/12/20 09:58:58;;;;;;;16.60;13.50;;;;;;;-0.17;88.01;97845.83;106402;1322;22519;-63
2021/12/20 10:01:28;;;;;;;13.50;11.60;;;;;;;-0.15;87.78;97850.80;106417;1321;22519;-62
2021/12/20 10:03:56;;;;;;;14.60;12.50;;;;;;;-0.17;87.26;97859.45;106404;1322;23390;-62
2021/12/20 10:06:25;;;;;;;16.50;13.60;;;;;;;-0.17;87.50;97842.45;106408;1322;22476;-63
2021/12/20 10:08:55;;;;;;;14.10;12.20;;;;;;;-0.16;87.55;97845.78;106387;1322;22413;-64
2021/12/20 10:11:32;;;;;;;14.20;12.70;;;;;;;-0.15;87.47;97855.41;106407;1318;22459;-63
2021/12/20 10:14:07;;;;;;;15.90;13.90;;;;;;;-0.16;87.28;97862.33;106401;1322;22302;-64
2021/12/20 10:16:37;;;;;;;15.70;13.80;;;;;;;-0.18;87.80;97856.45;106397;1321;22241;-63
2021/12/20 10:19:34;;;;;;;14.40;12.90;;;;;;;-0.14;87.82;97864.80;106411;1322;22862;-63
2021/12/20 10:22:30;;;;;;;18.50;14.90;;;;;;;-0.15;87.79;97868.44;106364;1321;22487;-64
2021/12/20 10:24:59;;;;;;;16.00;12.90;;;;;;;-0.17;87.68;97867.10;106433;1322;22617;-62
2021/12/20 10:27:29;;;;;;;12.50;10.70;;;;;;;-0.18;87.75;97863.81;106302;1322;138089;-63
2021/12/20 10:29:57;;;;;;;12.80;11.40;;;;;;;-0.20;87.64;97864.50;106408;1321;23394;-63
2021/12/20 10:32:40;;;;;;;13.90;12.20;;;;;;;-0.23;87.64;97866.83;106408;1321;23298;-63
2021/12/20 10:35:33;;;;;;;13.40;11.20;;;;;;;-0.25;87.77;97870.70;106287;1322;22572;-64
2021/12/20 10:38:05;;;;;;;18.00;12.70;;;;;;;-0.27;87.87;97863.19;106408;1322;22586;-64
2021/12/20 10:40:47;;;;;;;13.90;12.50;;;;;;;-0.26;87.87;97858.82;106374;1322;23461;-64
2021/12/20 10:43:35;;;;;;;16.60;15.00;;;;;;;-0.26;87.96;97862.41;106405;1322;23058;-63
2021/12/20 10:46:22;;;;;;;14.70;13.20;;;;;;;-0.30;87.96;97866.94;106395;1322;22502;-63
2021/12/20 10:49:14;;;;;;;12.30;11.00;;;;;;;-0.29;87.99;97861.44;106374;1321;22580;-64
2021/12/20 10:51:49;;;;;;;12.40;11.00;;;;;;;-0.31;87.73;97865.79;106379;1322;22417;-63
2021/12/20 10:54:22;;;;;;;14.20;12.70;;;;;;;-0.27;88.00;97863.92;106406;1322;22335;-64
2021/12/20 10:57:05;;;;;;;13.30;11.90;;;;;;;-0.26;87.95;97869.25;106444;1322;22544;-64
2021/12/20 10:59:36;;;;;;;13.90;11.90;;;;;;;-0.27;87.88;97862.06;106412;1322;22489;-65
2021/12/20 11:05:21;;;;;;;13.20;11.40;;;;;;;-0.29;87.68;97865.64;106133;1322;22304;-63
2021/12/20 11:11:14;;;;;;;14.00;12.20;;;;;;;-0.30;87.65;97868.52;106428;1322;23192;-64
2021/12/20 11:13:42;;;;;;;12.80;11.50;;;;;;;-0.29;87.82;97868.00;106401;1322;23014;-64
2021/12/20 11:16:31;;;;;;;12.40;11.10;;;;;;;-0.24;87.79;97874.92;106295;1322;138114;-64
2021/12/20 11:19:32;;;;;;;13.50;12.20;;;;;;;-0.22;87.76;97877.33;106394;1322;22607;-64
2021/12/20 11:22:08;;;;;;;11.80;10.60;;;;;;;-0.23;87.76;97887.21;106397;1321;23227;-63
2021/12/20 11:24:52;;;;;;;11.90;10.70;;;;;;;-0.29;87.89;97880.66;106356;1322;22313;-63
2021/12/20 11:27:32;;;;;;;12.30;11.00;;;;;;;-0.31;88.04;97885.28;106398;1322;23233;-63
2021/12/20 11:30:16;;;;;;;13.10;11.80;;;;;;;-0.31;88.17;97881.67;106391;1322;23285;-64
2021/12/20 11:32:50;;;;;;;15.10;11.80;;;;;;;-0.35;88.05;97892.29;106404;1322;23074;-63
2021/12/20 11:35:30;;;;;;;12.20;10.90;;;;;;;-0.35;88.04;97886.19;106385;1322;22482;-63
2021/12/20 11:38:09;;;;;;;12.60;10.70;;;;;;;-0.32;87.96;97895.55;106402;1322;22487;-64
2021/12/20 11:40:43;;;;;;;11.40;10.20;;;;;;;-0.34;87.63;97894.43;106402;1322;22397;-64
2021/12/20 11:43:11;;;;;;;13.40;11.80;;;;;;;-0.33;87.83;97891.73;106415;1322;23091;-64
2021/12/20 11:45:44;;;;;;;11.40;10.10;;;;;;;-0.31;88.00;97894.74;106306;1322;138804;-64
2021/12/20 11:48:19;;;;;;;12.60;11.30;;;;;;;-0.28;87.71;97896.95;106418;1320;22460;-64
2021/12/20 11:50:59;;;;;;;13.80;11.20;;;;;;;-0.31;87.69;97897.56;106431;1321;23245;-64